createdAt,value
2023-08-11T00:00:11.979Z,1011.80
2023-08-11T00:00:41.919Z,1011.80
2023-08-11T00:01:11.950Z,1011.80
2023-08-11T00:01:41.896Z,1011.79
2023-08-11T00:02:11.889Z,1011.79
2023-08-11T00:02:41.873Z,1011.78
2023-08-11T00:03:11.935Z,1011.77
2023-08-11T00:03:43.547Z,1011.77
2023-08-11T00:04:11.968Z,1011.77
2023-08-11T00:04:41.947Z,1011.77
2023-08-11T00:05:11.838Z,1011.77
2023-08-11T00:05:41.823Z,1011.77
2023-08-11T00:06:11.841Z,1011.77
2023-08-11T00:06:41.879Z,1011.77
2023-08-11T00:07:12.490Z,1011.77
2023-08-11T00:07:41.822Z,1011.77
2023-08-11T00:08:12.007Z,1011.78
2023-08-11T00:08:42.002Z,1011.78
2023-08-11T00:09:11.802Z,1011.78
2023-08-11T00:09:41.808Z,1011.77
2023-08-11T00:10:11.777Z,1011.77
2023-08-11T00:10:42.128Z,1011.77
2023-08-11T00:11:11.794Z,1011.77
2023-08-11T00:11:42.314Z,1011.76
2023-08-11T00:12:11.796Z,1011.77
2023-08-11T00:12:41.772Z,1011.77
2023-08-11T00:13:11.742Z,1011.77
2023-08-11T00:13:41.762Z,1011.78
2023-08-11T00:14:11.862Z,1011.78
2023-08-11T00:14:41.733Z,1011.78
2023-08-11T00:15:11.739Z,1011.79
2023-08-11T00:15:41.739Z,1011.79
2023-08-11T00:16:11.755Z,1011.78
2023-08-11T00:16:41.742Z,1011.78
2023-08-11T00:17:11.706Z,1011.78
2023-08-11T00:17:41.740Z,1011.78
2023-08-11T00:18:11.703Z,1011.77
2023-08-11T00:18:41.695Z,1011.76
2023-08-11T00:19:11.689Z,1011.75
2023-08-11T00:19:41.670Z,1011.75
2023-08-11T00:20:11.677Z,1011.74
2023-08-11T00:20:41.780Z,1011.74
2023-08-11T00:21:11.695Z,1011.73
2023-08-11T00:21:41.671Z,1011.73
2023-08-11T00:22:11.772Z,1011.73
2023-08-11T00:22:41.873Z,1011.73
2023-08-11T00:23:11.667Z,1011.73
2023-08-11T00:23:41.641Z,1011.73
2023-08-11T00:24:11.653Z,1011.74
2023-08-11T00:24:41.707Z,1011.74
2023-08-11T00:25:11.632Z,1011.74
2023-08-11T00:25:41.690Z,1011.74
2023-08-11T00:26:11.623Z,1011.75
2023-08-11T00:26:42.477Z,1011.74
2023-08-11T00:27:11.631Z,1011.75
2023-08-11T00:27:41.658Z,1011.74
2023-08-11T00:28:11.614Z,1011.74
2023-08-11T00:28:41.592Z,1011.75
2023-08-11T00:29:12.009Z,1011.74
2023-08-11T00:29:41.599Z,1011.75
2023-08-11T00:30:12.175Z,1011.75
2023-08-11T00:30:41.603Z,1011.75
2023-08-11T00:31:11.632Z,1011.74
2023-08-11T00:31:41.603Z,1011.74
2023-08-11T00:32:11.612Z,1011.74
2023-08-11T00:32:41.602Z,1011.73
2023-08-11T00:33:11.572Z,1011.74
2023-08-11T00:33:43.440Z,1011.73
2023-08-11T00:34:11.576Z,1011.73
2023-08-11T00:34:41.632Z,1011.73
2023-08-11T00:35:11.629Z,1011.72
2023-08-11T00:35:41.535Z,1011.72
2023-08-11T00:36:11.637Z,1011.72
2023-08-11T00:36:41.678Z,1011.71
2023-08-11T00:37:13.210Z,1011.71
2023-08-11T00:37:41.474Z,1011.70
2023-08-11T00:38:11.527Z,1011.70
2023-08-11T00:38:41.523Z,1011.69
2023-08-11T00:39:11.493Z,1011.68
2023-08-11T00:39:42.005Z,1011.68
2023-08-11T00:40:11.894Z,1011.68
2023-08-11T00:40:41.469Z,1011.68
2023-08-11T00:41:11.469Z,1011.67
2023-08-11T00:41:41.562Z,1011.67
2023-08-11T00:42:11.475Z,1011.68
2023-08-11T00:42:41.450Z,1011.68
2023-08-11T00:43:11.436Z,1011.68
2023-08-11T00:43:41.423Z,1011.69
2023-08-11T00:44:11.439Z,1011.69
2023-08-11T00:44:41.420Z,1011.70
2023-08-11T00:45:11.493Z,1011.70
2023-08-11T00:45:41.433Z,1011.70
2023-08-11T00:46:11.418Z,1011.71
2023-08-11T00:46:41.395Z,1011.70
2023-08-11T00:47:11.533Z,1011.71
2023-08-11T00:47:41.453Z,1011.70
2023-08-11T00:48:11.413Z,1011.70
2023-08-11T00:48:41.579Z,1011.70
2023-08-11T00:49:11.355Z,1011.69
2023-08-11T00:49:42.298Z,1011.70
2023-08-11T00:50:11.565Z,1011.70
2023-08-11T00:50:42.065Z,1011.69
2023-08-11T00:51:11.328Z,1011.69
2023-08-11T00:51:41.373Z,1011.69
2023-08-11T00:52:11.339Z,1011.68
2023-08-11T00:52:44.997Z,1011.68
2023-08-11T00:53:11.346Z,1011.69
2023-08-11T00:53:41.330Z,1011.68
2023-08-11T00:54:11.363Z,1011.69
2023-08-11T00:54:41.456Z,1011.69
2023-08-11T00:55:11.356Z,1011.69
2023-08-11T00:55:41.813Z,1011.69
2023-08-11T00:56:11.294Z,1011.69
2023-08-11T00:56:41.382Z,1011.69
2023-08-11T00:57:12.239Z,1011.68
2023-08-11T00:57:41.302Z,1011.68
2023-08-11T00:58:15.896Z,1011.68
2023-08-11T00:58:41.286Z,1011.67
2023-08-11T00:59:12.465Z,1011.67
2023-08-11T00:59:41.296Z,1011.67
2023-08-11T01:00:11.315Z,1011.66
2023-08-11T01:00:41.289Z,1011.67
2023-08-11T01:01:11.334Z,1011.67
2023-08-11T01:01:41.394Z,1011.67
2023-08-11T01:02:11.408Z,1011.67
2023-08-11T01:02:41.736Z,1011.68
2023-08-11T01:03:11.277Z,1011.69
2023-08-11T01:03:41.526Z,1011.69
2023-08-11T01:04:13.890Z,1011.69
2023-08-11T01:04:41.791Z,1011.69
2023-08-11T01:05:11.237Z,1011.68
2023-08-11T01:05:41.206Z,1011.68
2023-08-11T01:06:11.210Z,1011.67
2023-08-11T01:06:41.308Z,1011.65
2023-08-11T01:07:11.163Z,1011.63
2023-08-11T01:07:41.191Z,1011.62
2023-08-11T01:08:12.050Z,1011.61
2023-08-11T01:08:41.983Z,1011.60
2023-08-11T01:09:11.225Z,1011.59
2023-08-11T01:09:41.188Z,1011.59
2023-08-11T01:10:11.158Z,1011.59
2023-08-11T01:10:41.683Z,1011.60
2023-08-11T01:11:11.142Z,1011.60
2023-08-11T01:11:41.136Z,1011.61
2023-08-11T01:12:11.196Z,1011.61
2023-08-11T01:12:41.128Z,1011.61
2023-08-11T01:13:11.131Z,1011.61
2023-08-11T01:13:41.112Z,1011.61
2023-08-11T01:14:11.168Z,1011.60
2023-08-11T01:14:41.124Z,1011.60
2023-08-11T01:15:11.126Z,1011.58
2023-08-11T01:15:41.946Z,1011.57
2023-08-11T01:16:11.129Z,1011.55
2023-08-11T01:16:41.153Z,1011.54
2023-08-11T01:17:11.518Z,1011.53
2023-08-11T01:17:41.139Z,1011.51
2023-08-11T01:18:12.917Z,1011.50
2023-08-11T01:18:42.282Z,1011.49
2023-08-11T01:19:11.140Z,1011.49
2023-08-11T01:19:41.056Z,1011.48
2023-08-11T01:20:11.073Z,1011.49
2023-08-11T01:20:41.077Z,1011.49
2023-08-11T01:21:11.749Z,1011.49
2023-08-11T01:21:41.087Z,1011.50
2023-08-11T01:22:11.049Z,1011.50
2023-08-11T01:22:41.132Z,1011.50
2023-08-11T01:23:11.052Z,1011.50
2023-08-11T01:23:41.022Z,1011.49
2023-08-11T01:24:11.037Z,1011.48
2023-08-11T01:24:41.034Z,1011.48
2023-08-11T01:25:11.006Z,1011.48
2023-08-11T01:25:41.066Z,1011.48
2023-08-11T01:26:11.033Z,1011.48
2023-08-11T01:26:41.984Z,1011.48
2023-08-11T01:27:14.415Z,1011.47
2023-08-11T01:27:40.986Z,1011.47
2023-08-11T01:28:10.990Z,1011.47
2023-08-11T01:28:42.103Z,1011.47
2023-08-11T01:29:10.970Z,1011.47
2023-08-11T01:29:40.977Z,1011.48
2023-08-11T01:30:11.002Z,1011.47
2023-08-11T01:30:41.013Z,1011.47
2023-08-11T01:31:11.008Z,1011.47
2023-08-11T01:31:40.936Z,1011.47
2023-08-11T01:32:11.088Z,1011.48
2023-08-11T01:32:41.154Z,1011.48
2023-08-11T01:33:11.001Z,1011.49
2023-08-11T01:33:40.942Z,1011.48
2023-08-11T01:34:10.947Z,1011.49
2023-08-11T01:34:40.949Z,1011.50
2023-08-11T01:35:10.941Z,1011.50
2023-08-11T01:35:41.902Z,1011.49
2023-08-11T01:36:10.922Z,1011.49
2023-08-11T01:36:40.919Z,1011.49
2023-08-11T01:37:11.524Z,1011.49
2023-08-11T01:37:43.229Z,1011.48
2023-08-11T01:38:11.320Z,1011.48
2023-08-11T01:38:41.471Z,1011.48
2023-08-11T01:39:10.888Z,1011.47
2023-08-11T01:39:40.888Z,1011.47
2023-08-11T01:40:10.977Z,1011.48
2023-08-11T01:40:40.875Z,1011.48
2023-08-11T01:41:10.879Z,1011.48
2023-08-11T01:41:40.926Z,1011.49
2023-08-11T01:42:10.852Z,1011.49
2023-08-11T01:42:46.651Z,1011.49
2023-08-11T01:43:10.816Z,1011.49
2023-08-11T01:43:40.820Z,1011.48
2023-08-11T01:44:10.834Z,1011.47
2023-08-11T01:44:40.813Z,1011.47
2023-08-11T01:45:10.822Z,1011.47
2023-08-11T01:45:40.837Z,1011.46
2023-08-11T01:46:10.994Z,1011.46
2023-08-11T01:46:41.050Z,1011.46
2023-08-11T01:47:11.041Z,1011.46
2023-08-11T01:47:40.870Z,1011.46
2023-08-11T01:48:10.972Z,1011.46
2023-08-11T01:48:40.851Z,1011.47
2023-08-11T01:49:10.801Z,1011.46
2023-08-11T01:49:40.777Z,1011.46
2023-08-11T01:50:10.755Z,1011.46
2023-08-11T01:50:40.777Z,1011.46
2023-08-11T01:51:10.777Z,1011.45
2023-08-11T01:51:40.880Z,1011.46
2023-08-11T01:52:10.756Z,1011.45
2023-08-11T01:52:40.735Z,1011.45
2023-08-11T01:53:10.733Z,1011.44
2023-08-11T01:53:40.719Z,1011.43
2023-08-11T01:54:10.753Z,1011.43
2023-08-11T01:54:40.761Z,1011.43
2023-08-11T01:55:10.732Z,1011.42
2023-08-11T01:55:40.697Z,1011.42
2023-08-11T01:56:10.687Z,1011.42
2023-08-11T01:56:40.741Z,1011.42
2023-08-11T01:57:10.725Z,1011.42
2023-08-11T01:57:48.586Z,1011.43
2023-08-11T01:58:10.699Z,1011.44
2023-08-11T01:58:40.753Z,1011.45
2023-08-11T01:59:10.682Z,1011.46
2023-08-11T01:59:40.787Z,1011.47
2023-08-11T02:00:10.817Z,1011.47
2023-08-11T02:00:40.837Z,1011.47
2023-08-11T02:01:10.636Z,1011.47
2023-08-11T02:01:40.816Z,1011.47
2023-08-11T02:02:10.650Z,1011.46
2023-08-11T02:02:40.702Z,1011.46
2023-08-11T02:03:10.692Z,1011.45
2023-08-11T02:03:40.688Z,1011.45
2023-08-11T02:04:10.646Z,1011.46
2023-08-11T02:04:40.691Z,1011.45
2023-08-11T02:05:10.609Z,1011.46
2023-08-11T02:05:40.613Z,1011.46
2023-08-11T02:06:11.491Z,1011.45
2023-08-11T02:06:40.658Z,1011.45
2023-08-11T02:07:10.566Z,1011.45
2023-08-11T02:07:40.576Z,1011.44
2023-08-11T02:08:10.577Z,1011.44
2023-08-11T02:08:40.544Z,1011.44
2023-08-11T02:09:10.587Z,1011.44
2023-08-11T02:09:40.590Z,1011.43
2023-08-11T02:10:10.548Z,1011.43
2023-08-11T02:10:40.667Z,1011.43
2023-08-11T02:11:10.603Z,1011.43
2023-08-11T02:11:40.539Z,1011.43
2023-08-11T02:12:10.789Z,1011.42
2023-08-11T02:12:40.512Z,1011.42
2023-08-11T02:13:10.511Z,1011.42
2023-08-11T02:13:40.529Z,1011.42
2023-08-11T02:14:10.614Z,1011.42
2023-08-11T02:14:40.730Z,1011.43
2023-08-11T02:15:10.495Z,1011.42
2023-08-11T02:15:40.583Z,1011.42
2023-08-11T02:16:10.546Z,1011.41
2023-08-11T02:16:40.471Z,1011.40
2023-08-11T02:17:10.528Z,1011.39
2023-08-11T02:17:40.571Z,1011.39
2023-08-11T02:18:10.583Z,1011.38
2023-08-11T02:18:40.467Z,1011.37
2023-08-11T02:19:10.429Z,1011.37
2023-08-11T02:19:40.470Z,1011.37
2023-08-11T02:20:10.455Z,1011.37
2023-08-11T02:20:40.469Z,1011.37
2023-08-11T02:21:10.520Z,1011.36
2023-08-11T02:21:40.603Z,1011.36
2023-08-11T02:22:10.578Z,1011.35
2023-08-11T02:22:40.435Z,1011.35
2023-08-11T02:23:10.432Z,1011.34
2023-08-11T02:23:40.429Z,1011.34
2023-08-11T02:24:10.497Z,1011.33
2023-08-11T02:24:40.451Z,1011.33
2023-08-11T02:25:10.538Z,1011.33
2023-08-11T02:25:40.479Z,1011.33
2023-08-11T02:26:10.443Z,1011.33
2023-08-11T02:26:40.435Z,1011.33
2023-08-11T02:27:10.403Z,1011.34
2023-08-11T02:27:40.400Z,1011.34
2023-08-11T02:28:10.511Z,1011.34
2023-08-11T02:28:40.590Z,1011.33
2023-08-11T02:29:10.455Z,1011.33
2023-08-11T02:29:40.398Z,1011.32
2023-08-11T02:30:10.324Z,1011.31
2023-08-11T02:30:40.335Z,1011.31
2023-08-11T02:31:10.485Z,1011.32
2023-08-11T02:31:40.374Z,1011.31
2023-08-11T02:32:10.363Z,1011.32
2023-08-11T02:32:40.378Z,1011.32
2023-08-11T02:33:10.446Z,1011.32
2023-08-11T02:33:40.339Z,1011.31
2023-08-11T02:34:10.375Z,1011.31
2023-08-11T02:34:40.289Z,1011.31
2023-08-11T02:35:10.508Z,1011.31
2023-08-11T02:35:40.381Z,1011.30
2023-08-11T02:36:10.324Z,1011.30
2023-08-11T02:36:40.324Z,1011.30
2023-08-11T02:37:10.424Z,1011.30
2023-08-11T02:37:40.270Z,1011.30
2023-08-11T02:38:10.294Z,1011.29
2023-08-11T02:38:40.259Z,1011.29
2023-08-11T02:39:10.230Z,1011.28
2023-08-11T02:39:40.719Z,1011.27
2023-08-11T02:40:10.429Z,1011.26
2023-08-11T02:40:40.299Z,1011.26
2023-08-11T02:41:10.234Z,1011.26
2023-08-11T02:41:40.260Z,1011.26
2023-08-11T02:42:10.676Z,1011.26
2023-08-11T02:42:40.607Z,1011.26
2023-08-11T02:43:10.218Z,1011.27
2023-08-11T02:43:40.240Z,1011.27
2023-08-11T02:44:10.261Z,1011.26
2023-08-11T02:44:40.221Z,1011.25
2023-08-11T02:45:10.247Z,1011.25
2023-08-11T02:45:40.343Z,1011.24
2023-08-11T02:46:10.571Z,1011.24
2023-08-11T02:46:40.177Z,1011.24
2023-08-11T02:47:10.177Z,1011.23
2023-08-11T02:47:40.155Z,1011.23
2023-08-11T02:48:10.200Z,1011.23
2023-08-11T02:48:40.132Z,1011.24
2023-08-11T02:49:10.141Z,1011.24
2023-08-11T02:49:40.177Z,1011.23
2023-08-11T02:50:10.260Z,1011.24
2023-08-11T02:50:40.183Z,1011.23
2023-08-11T02:51:10.120Z,1011.23
2023-08-11T02:51:40.547Z,1011.22
2023-08-11T02:52:10.386Z,1011.22
2023-08-11T02:52:40.150Z,1011.22
2023-08-11T02:53:10.184Z,1011.22
2023-08-11T02:53:40.173Z,1011.22
2023-08-11T02:54:10.138Z,1011.22
2023-08-11T02:54:41.376Z,1011.22
2023-08-11T02:55:10.419Z,1011.21
2023-08-11T02:55:40.086Z,1011.21
2023-08-11T02:56:10.174Z,1011.21
2023-08-11T02:56:40.238Z,1011.20
2023-08-11T02:57:11.670Z,1011.20
2023-08-11T02:57:40.068Z,1011.20
2023-08-11T02:58:10.077Z,1011.20
2023-08-11T02:58:40.038Z,1011.19
2023-08-11T02:59:10.033Z,1011.18
2023-08-11T02:59:40.096Z,1011.19
2023-08-11T03:00:10.046Z,1011.19
2023-08-11T03:00:40.074Z,1011.19
2023-08-11T03:01:10.015Z,1011.19
2023-08-11T03:01:40.041Z,1011.20
2023-08-11T03:02:10.231Z,1011.20
2023-08-11T03:02:40.079Z,1011.21
2023-08-11T03:03:10.066Z,1011.21
2023-08-11T03:03:40.010Z,1011.21
2023-08-11T03:04:10.025Z,1011.22
2023-08-11T03:04:40.418Z,1011.22
2023-08-11T03:05:09.968Z,1011.22
2023-08-11T03:05:39.996Z,1011.22
2023-08-11T03:06:09.971Z,1011.21
2023-08-11T03:06:41.512Z,1011.20
2023-08-11T03:07:10.006Z,1011.20
2023-08-11T03:07:39.958Z,1011.19
2023-08-11T03:08:09.933Z,1011.18
2023-08-11T03:08:39.951Z,1011.17
2023-08-11T03:09:09.934Z,1011.18
2023-08-11T03:09:40.006Z,1011.18
2023-08-11T03:10:10.052Z,1011.18
2023-08-11T03:10:54.712Z,1011.18
2023-08-11T03:11:09.963Z,1011.18
2023-08-11T03:11:39.911Z,1011.18
2023-08-11T03:12:10.680Z,1011.18
2023-08-11T03:12:39.915Z,1011.18
2023-08-11T03:13:09.961Z,1011.18
2023-08-11T03:13:39.884Z,1011.18
2023-08-11T03:14:09.922Z,1011.18
2023-08-11T03:14:39.875Z,1011.17
2023-08-11T03:15:09.971Z,1011.16
2023-08-11T03:15:40.032Z,1011.14
2023-08-11T03:16:09.902Z,1011.14
2023-08-11T03:16:39.923Z,1011.13
2023-08-11T03:17:09.872Z,1011.13
2023-08-11T03:17:40.766Z,1011.13
2023-08-11T03:18:09.909Z,1011.14
2023-08-11T03:18:39.835Z,1011.14
2023-08-11T03:19:09.861Z,1011.14
2023-08-11T03:19:39.837Z,1011.14
2023-08-11T03:20:09.835Z,1011.14
2023-08-11T03:20:39.887Z,1011.14
2023-08-11T03:21:19.369Z,1011.14
2023-08-11T03:21:39.862Z,1011.14
2023-08-11T03:22:10.047Z,1011.14
2023-08-11T03:22:39.828Z,1011.14
2023-08-11T03:23:09.820Z,1011.15
2023-08-11T03:23:41.324Z,1011.15
2023-08-11T03:24:11.217Z,1011.16
2023-08-11T03:24:39.870Z,1011.16
2023-08-11T03:25:09.837Z,1011.16
2023-08-11T03:25:39.775Z,1011.16
2023-08-11T03:26:09.758Z,1011.16
2023-08-11T03:26:39.750Z,1011.16
2023-08-11T03:27:09.821Z,1011.15
2023-08-11T03:27:39.748Z,1011.14
2023-08-11T03:28:09.689Z,1011.14
2023-08-11T03:28:39.713Z,1011.13
2023-08-11T03:29:09.734Z,1011.13
2023-08-11T03:29:41.170Z,1011.13
2023-08-11T03:30:10.518Z,1011.13
2023-08-11T03:30:39.720Z,1011.13
2023-08-11T03:31:09.656Z,1011.15
2023-08-11T03:31:39.653Z,1011.15
2023-08-11T03:32:09.953Z,1011.16
2023-08-11T03:32:39.806Z,1011.16
2023-08-11T03:33:09.731Z,1011.17
2023-08-11T03:33:39.619Z,1011.16
2023-08-11T03:34:09.635Z,1011.16
2023-08-11T03:34:39.700Z,1011.16
2023-08-11T03:35:13.052Z,1011.16
2023-08-11T03:35:39.595Z,1011.16
2023-08-11T03:36:09.608Z,1011.16
2023-08-11T03:36:40.394Z,1011.17
2023-08-11T03:37:09.597Z,1011.17
2023-08-11T03:37:39.635Z,1011.18
2023-08-11T03:38:09.754Z,1011.19
2023-08-11T03:38:39.828Z,1011.20
2023-08-11T03:39:09.592Z,1011.21
2023-08-11T03:39:39.657Z,1011.22
2023-08-11T03:40:09.570Z,1011.21
2023-08-11T03:40:39.568Z,1011.21
2023-08-11T03:41:09.577Z,1011.21
2023-08-11T03:41:39.565Z,1011.20
2023-08-11T03:42:12.050Z,1011.19
2023-08-11T03:42:39.586Z,1011.18
2023-08-11T03:43:09.571Z,1011.18
2023-08-11T03:43:39.575Z,1011.17
2023-08-11T03:44:09.601Z,1011.18
2023-08-11T03:44:39.520Z,1011.17
2023-08-11T03:45:09.556Z,1011.18
2023-08-11T03:45:39.615Z,1011.18
2023-08-11T03:46:09.946Z,1011.19
2023-08-11T03:46:39.581Z,1011.20
2023-08-11T03:47:09.557Z,1011.21
2023-08-11T03:47:39.474Z,1011.22
2023-08-11T03:48:09.521Z,1011.23
2023-08-11T03:48:39.545Z,1011.23
2023-08-11T03:49:09.510Z,1011.23
2023-08-11T03:49:39.467Z,1011.23
2023-08-11T03:50:09.546Z,1011.23
2023-08-11T03:50:39.517Z,1011.22
2023-08-11T03:51:09.488Z,1011.22
2023-08-11T03:51:39.562Z,1011.22
2023-08-11T03:52:10.003Z,1011.22
2023-08-11T03:52:39.643Z,1011.23
2023-08-11T03:53:09.478Z,1011.23
2023-08-11T03:53:48.065Z,1011.24
2023-08-11T03:54:09.418Z,1011.24
2023-08-11T03:54:45.489Z,1011.25
2023-08-11T03:55:09.399Z,1011.25
2023-08-11T03:55:39.409Z,1011.26
2023-08-11T03:56:09.414Z,1011.26
2023-08-11T03:56:39.440Z,1011.27
2023-08-11T03:57:09.495Z,1011.27
2023-08-11T03:57:39.407Z,1011.27
2023-08-11T03:58:10.508Z,1011.29
2023-08-11T03:58:39.417Z,1011.29
2023-08-11T03:59:09.409Z,1011.30
2023-08-11T03:59:39.380Z,1011.32
2023-08-11T04:00:09.423Z,1011.32
2023-08-11T04:00:39.664Z,1011.33
2023-08-11T04:01:09.377Z,1011.34
2023-08-11T04:01:39.330Z,1011.34
2023-08-11T04:02:09.656Z,1011.34
2023-08-11T04:02:39.382Z,1011.35
2023-08-11T04:03:09.536Z,1011.35
2023-08-11T04:03:39.425Z,1011.35
2023-08-11T04:04:09.417Z,1011.35
2023-08-11T04:04:39.353Z,1011.35
2023-08-11T04:05:09.424Z,1011.36
2023-08-11T04:05:39.391Z,1011.36
2023-08-11T04:06:09.506Z,1011.36
2023-08-11T04:06:39.570Z,1011.36
2023-08-11T04:07:09.333Z,1011.36
2023-08-11T04:07:39.313Z,1011.36
2023-08-11T04:08:09.372Z,1011.36
2023-08-11T04:08:39.324Z,1011.36
2023-08-11T04:09:09.318Z,1011.35
2023-08-11T04:09:39.276Z,1011.35
2023-08-11T04:10:10.937Z,1011.36
2023-08-11T04:10:39.264Z,1011.36
2023-08-11T04:11:09.399Z,1011.37
2023-08-11T04:11:40.354Z,1011.38
2023-08-11T04:12:09.398Z,1011.38
2023-08-11T04:12:39.264Z,1011.38
2023-08-11T04:13:09.427Z,1011.39
2023-08-11T04:13:39.325Z,1011.40
2023-08-11T04:14:09.259Z,1011.40
2023-08-11T04:14:39.234Z,1011.41
2023-08-11T04:15:09.257Z,1011.41
2023-08-11T04:15:39.244Z,1011.41
2023-08-11T04:16:09.295Z,1011.41
2023-08-11T04:16:39.293Z,1011.42
2023-08-11T04:17:09.225Z,1011.41
2023-08-11T04:17:39.271Z,1011.41
2023-08-11T04:18:09.340Z,1011.41
2023-08-11T04:18:39.165Z,1011.42
2023-08-11T04:19:09.234Z,1011.42
2023-08-11T04:19:39.173Z,1011.42
2023-08-11T04:20:09.325Z,1011.42
2023-08-11T04:20:39.437Z,1011.43
2023-08-11T04:21:09.183Z,1011.43
2023-08-11T04:21:39.147Z,1011.44
2023-08-11T04:22:09.314Z,1011.44
2023-08-11T04:22:39.606Z,1011.45
2023-08-11T04:23:09.185Z,1011.45
2023-08-11T04:23:39.234Z,1011.45
2023-08-11T04:24:09.137Z,1011.46
2023-08-11T04:24:39.120Z,1011.46
2023-08-11T04:25:09.129Z,1011.46
2023-08-11T04:25:39.110Z,1011.46
2023-08-11T04:26:09.171Z,1011.46
2023-08-11T04:26:39.109Z,1011.46
2023-08-11T04:27:09.115Z,1011.46
2023-08-11T04:27:39.106Z,1011.46
2023-08-11T04:28:09.126Z,1011.46
2023-08-11T04:28:39.155Z,1011.46
2023-08-11T04:29:09.044Z,1011.46
2023-08-11T04:29:39.182Z,1011.46
2023-08-11T04:30:09.086Z,1011.46
2023-08-11T04:30:39.166Z,1011.46
2023-08-11T04:31:09.103Z,1011.46
2023-08-11T04:31:39.047Z,1011.46
2023-08-11T04:32:09.224Z,1011.46
2023-08-11T04:32:40.056Z,1011.46
2023-08-11T04:33:09.163Z,1011.46
2023-08-11T04:33:39.104Z,1011.47
2023-08-11T04:34:09.153Z,1011.46
2023-08-11T04:34:39.246Z,1011.46
2023-08-11T04:35:09.056Z,1011.45
2023-08-11T04:35:39.016Z,1011.45
2023-08-11T04:36:08.993Z,1011.44
2023-08-11T04:36:39.003Z,1011.43
2023-08-11T04:37:08.979Z,1011.42
2023-08-11T04:37:39.094Z,1011.41
2023-08-11T04:38:09.051Z,1011.41
2023-08-11T04:38:39.092Z,1011.40
2023-08-11T04:39:09.115Z,1011.40
2023-08-11T04:39:39.022Z,1011.40
2023-08-11T04:40:08.998Z,1011.40
2023-08-11T04:40:38.952Z,1011.39
2023-08-11T04:41:09.009Z,1011.39
2023-08-11T04:41:38.953Z,1011.39
2023-08-11T04:42:09.440Z,1011.39
2023-08-11T04:42:38.965Z,1011.39
2023-08-11T04:43:08.910Z,1011.39
2023-08-11T04:43:38.938Z,1011.39
2023-08-11T04:44:08.932Z,1011.39
2023-08-11T04:44:38.930Z,1011.40
2023-08-11T04:45:08.896Z,1011.40
2023-08-11T04:45:38.880Z,1011.40
2023-08-11T04:46:08.875Z,1011.40
2023-08-11T04:46:38.997Z,1011.40
2023-08-11T04:47:08.945Z,1011.39
2023-08-11T04:47:39.012Z,1011.39
2023-08-11T04:48:09.075Z,1011.38
2023-08-11T04:48:39.127Z,1011.38
2023-08-11T04:49:08.865Z,1011.37
2023-08-11T04:49:38.927Z,1011.37
2023-08-11T04:50:09.259Z,1011.37
2023-08-11T04:50:38.943Z,1011.38
2023-08-11T04:51:08.904Z,1011.38
2023-08-11T04:51:38.909Z,1011.38
2023-08-11T04:52:09.009Z,1011.39
2023-08-11T04:52:38.881Z,1011.39
2023-08-11T04:53:08.883Z,1011.40
2023-08-11T04:53:38.866Z,1011.40
2023-08-11T04:54:08.913Z,1011.40
2023-08-11T04:54:39.215Z,1011.40
2023-08-11T04:55:09.067Z,1011.40
2023-08-11T04:55:38.810Z,1011.41
2023-08-11T04:56:08.800Z,1011.41
2023-08-11T04:56:38.780Z,1011.41
2023-08-11T04:57:08.804Z,1011.42
2023-08-11T04:57:38.811Z,1011.42
2023-08-11T04:58:08.787Z,1011.42
2023-08-11T04:58:38.765Z,1011.42
2023-08-11T04:59:08.927Z,1011.43
2023-08-11T04:59:38.758Z,1011.42
2023-08-11T05:00:08.750Z,1011.41
2023-08-11T05:00:39.194Z,1011.41
2023-08-11T05:01:08.740Z,1011.40
2023-08-11T05:01:38.806Z,1011.40
2023-08-11T05:02:09.170Z,1011.40
2023-08-11T05:02:38.955Z,1011.40
2023-08-11T05:03:08.748Z,1011.40
2023-08-11T05:03:38.812Z,1011.41
2023-08-11T05:04:09.159Z,1011.41
2023-08-11T05:04:38.713Z,1011.41
2023-08-11T05:05:09.528Z,1011.41
2023-08-11T05:05:38.676Z,1011.42
2023-08-11T05:06:08.688Z,1011.42
2023-08-11T05:06:38.722Z,1011.42
2023-08-11T05:07:08.946Z,1011.43
2023-08-11T05:07:38.706Z,1011.43
2023-08-11T05:08:08.679Z,1011.44
2023-08-11T05:08:38.664Z,1011.44
2023-08-11T05:09:08.648Z,1011.44
2023-08-11T05:09:38.768Z,1011.44
2023-08-11T05:10:09.539Z,1011.44
2023-08-11T05:10:38.638Z,1011.44
2023-08-11T05:11:08.648Z,1011.44
2023-08-11T05:11:38.638Z,1011.44
2023-08-11T05:12:08.812Z,1011.44
2023-08-11T05:12:38.641Z,1011.44
2023-08-11T05:13:08.681Z,1011.45
2023-08-11T05:13:38.728Z,1011.46
2023-08-11T05:14:08.678Z,1011.47
2023-08-11T05:14:38.656Z,1011.46
2023-08-11T05:15:08.605Z,1011.46
2023-08-11T05:15:38.681Z,1011.46
2023-08-11T05:16:08.738Z,1011.45
2023-08-11T05:16:38.807Z,1011.44
2023-08-11T05:17:08.839Z,1011.44
2023-08-11T05:17:38.616Z,1011.44
2023-08-11T05:18:08.589Z,1011.44
2023-08-11T05:18:43.807Z,1011.45
2023-08-11T05:19:08.618Z,1011.45
2023-08-11T05:19:38.560Z,1011.46
2023-08-11T05:20:08.645Z,1011.46
2023-08-11T05:20:38.519Z,1011.46
2023-08-11T05:21:08.593Z,1011.45
2023-08-11T05:21:38.643Z,1011.45
2023-08-11T05:22:08.662Z,1011.46
2023-08-11T05:22:38.586Z,1011.46
2023-08-11T05:23:08.504Z,1011.46
2023-08-11T05:23:38.507Z,1011.47
2023-08-11T05:24:08.538Z,1011.48
2023-08-11T05:24:38.486Z,1011.49
2023-08-11T05:25:12.675Z,1011.50
2023-08-11T05:25:38.492Z,1011.51
2023-08-11T05:26:08.510Z,1011.52
2023-08-11T05:26:38.497Z,1011.52
2023-08-11T05:27:08.630Z,1011.53
2023-08-11T05:27:38.495Z,1011.53
2023-08-11T05:28:08.584Z,1011.52
2023-08-11T05:28:38.500Z,1011.52
2023-08-11T05:29:11.055Z,1011.52
2023-08-11T05:29:38.480Z,1011.51
2023-08-11T05:30:08.557Z,1011.51
2023-08-11T05:30:38.652Z,1011.51
2023-08-11T05:31:08.467Z,1011.50
2023-08-11T05:31:38.462Z,1011.50
2023-08-11T05:32:08.486Z,1011.50
2023-08-11T05:32:38.497Z,1011.51
2023-08-11T05:33:08.456Z,1011.52
2023-08-11T05:33:38.387Z,1011.52
2023-08-11T05:34:08.444Z,1011.53
2023-08-11T05:34:38.365Z,1011.53
2023-08-11T05:35:08.422Z,1011.53
2023-08-11T05:35:38.407Z,1011.53
2023-08-11T05:36:08.399Z,1011.53
2023-08-11T05:36:38.356Z,1011.53
2023-08-11T05:37:08.685Z,1011.52
2023-08-11T05:37:38.433Z,1011.51
2023-08-11T05:38:08.374Z,1011.51
2023-08-11T05:38:38.328Z,1011.51
2023-08-11T05:39:08.356Z,1011.50
2023-08-11T05:39:40.079Z,1011.50
2023-08-11T05:40:08.299Z,1011.49
2023-08-11T05:40:38.396Z,1011.49
2023-08-11T05:41:08.311Z,1011.49
2023-08-11T05:41:38.357Z,1011.49
2023-08-11T05:42:08.382Z,1011.48
2023-08-11T05:42:38.300Z,1011.48
2023-08-11T05:43:08.307Z,1011.47
2023-08-11T05:43:38.535Z,1011.46
2023-08-11T05:44:08.411Z,1011.46
2023-08-11T05:44:38.481Z,1011.46
2023-08-11T05:45:08.316Z,1011.46
2023-08-11T05:45:38.291Z,1011.46
2023-08-11T05:46:08.393Z,1011.46
2023-08-11T05:46:38.328Z,1011.45
2023-08-11T05:47:08.471Z,1011.46
2023-08-11T05:47:38.297Z,1011.45
2023-08-11T05:48:08.294Z,1011.45
2023-08-11T05:48:39.072Z,1011.45
2023-08-11T05:49:08.293Z,1011.45
2023-08-11T05:49:38.272Z,1011.46
2023-08-11T05:50:08.264Z,1011.46
2023-08-11T05:50:38.308Z,1011.46
2023-08-11T05:51:08.200Z,1011.47
2023-08-11T05:51:38.195Z,1011.47
2023-08-11T05:52:08.320Z,1011.47
2023-08-11T05:52:38.322Z,1011.46
2023-08-11T05:53:08.240Z,1011.45
2023-08-11T05:53:38.195Z,1011.44
2023-08-11T05:54:08.189Z,1011.43
2023-08-11T05:54:38.224Z,1011.42
2023-08-11T05:55:08.221Z,1011.42
2023-08-11T05:55:38.157Z,1011.42
2023-08-11T05:56:08.231Z,1011.43
2023-08-11T05:56:38.197Z,1011.43
2023-08-11T05:57:08.416Z,1011.43
2023-08-11T05:57:38.212Z,1011.44
2023-08-11T05:58:08.246Z,1011.43
2023-08-11T05:58:38.324Z,1011.43
2023-08-11T05:59:08.193Z,1011.43
2023-08-11T05:59:38.127Z,1011.43
2023-08-11T06:00:08.175Z,1011.43
2023-08-11T06:00:38.232Z,1011.43
2023-08-11T06:01:08.200Z,1011.44
2023-08-11T06:01:38.121Z,1011.43
2023-08-11T06:02:08.087Z,1011.44
2023-08-11T06:02:38.124Z,1011.44